createdAt,value
2023-04-27T00:09:20.287Z,7.8
2023-04-27T00:10:21.862Z,7.8
2023-04-27T00:11:23.552Z,7.8
2023-04-27T00:12:25.092Z,7.8
2023-04-27T00:13:26.632Z,7.8
2023-04-27T00:14:28.069Z,7.8
2023-04-27T00:15:29.668Z,7.7
2023-04-27T00:16:31.592Z,7.7
2023-04-27T00:17:33.383Z,7.7
2023-04-27T00:18:34.993Z,7.7
2023-04-27T00:19:36.574Z,7.7
2023-04-27T00:20:38.087Z,7.8
2023-04-27T00:21:39.590Z,7.8
2023-04-27T00:22:41.156Z,7.8
2023-04-27T00:23:42.720Z,7.8
2023-04-27T00:24:44.163Z,7.8
2023-04-27T00:25:45.682Z,7.9
2023-04-27T00:26:47.256Z,7.9
2023-04-27T00:27:48.774Z,7.9
2023-04-27T00:28:50.317Z,7.9
2023-04-27T00:29:51.839Z,7.8
2023-04-27T00:30:53.385Z,7.8
2023-04-27T00:31:55.150Z,7.8
2023-04-27T00:32:57.009Z,7.8
2023-04-27T00:33:58.528Z,7.8
2023-04-27T00:34:59.896Z,7.7
2023-04-27T00:36:01.403Z,7.7
2023-04-27T00:37:02.787Z,7.6
2023-04-27T00:38:04.365Z,7.5
2023-04-27T00:39:05.929Z,7.4
2023-04-27T00:40:07.501Z,7.4
2023-04-27T00:41:08.903Z,7.2
2023-04-27T00:42:10.270Z,7.2
2023-04-27T00:43:11.794Z,7.2
2023-04-27T00:44:13.345Z,7.1
2023-04-27T00:45:15.012Z,7.1
2023-04-27T00:46:16.659Z,7.2
2023-04-27T00:47:18.082Z,7.1
2023-04-27T00:48:19.420Z,7.2
2023-04-27T00:49:20.996Z,7.2
2023-04-27T00:50:22.504Z,7.2
2023-04-27T00:51:24.043Z,7.2
2023-04-27T00:52:25.594Z,7.2
2023-04-27T00:53:27.159Z,7.2
2023-04-27T00:54:28.549Z,7.2
2023-04-27T00:55:30.091Z,7.2
2023-04-27T00:56:31.591Z,7.2
2023-04-27T00:57:33.129Z,7.2
2023-04-27T00:58:34.613Z,7.2
2023-04-27T00:59:36.146Z,7.2
2023-04-27T01:00:37.683Z,7.1
2023-04-27T01:01:39.617Z,7.2
2023-04-27T01:02:42.196Z,7.2
2023-04-27T01:03:44.763Z,7.2
2023-04-27T01:04:46.448Z,7.2
2023-04-27T01:05:47.733Z,7.2
2023-04-27T01:06:49.258Z,7.2
2023-04-27T01:07:50.745Z,7.1
2023-04-27T01:08:52.259Z,7.1
2023-04-27T01:09:53.769Z,7.1
2023-04-27T01:10:55.310Z,7.1
2023-04-27T01:11:56.829Z,7.1
2023-04-27T01:12:58.378Z,7.1
2023-04-27T01:14:00.052Z,7.1
2023-04-27T01:15:01.356Z,7.1
2023-04-27T01:16:02.906Z,7.1
2023-04-27T01:17:04.894Z,7.1
2023-04-27T01:18:06.755Z,7.1
2023-04-27T01:19:08.297Z,7.1
2023-04-27T01:20:09.702Z,7.1
2023-04-27T01:21:11.232Z,7.1
2023-04-27T01:22:12.797Z,7.1
2023-04-27T01:23:18.622Z,7.1
2023-04-27T01:24:20.121Z,7.1
2023-04-27T01:25:21.646Z,7.1
2023-04-27T01:26:23.139Z,7.1
2023-04-27T01:27:24.677Z,7.1
2023-04-27T01:28:26.097Z,7.1
2023-04-27T01:29:27.637Z,7.1
2023-04-27T01:30:29.180Z,7.1
2023-04-27T01:31:30.928Z,7.1
2023-04-27T01:32:32.651Z,7.1
2023-04-27T01:33:34.031Z,7.1
2023-04-27T01:34:35.768Z,7.1
2023-04-27T01:35:37.855Z,7.1
2023-04-27T01:36:39.402Z,7.1
2023-04-27T01:37:40.902Z,7.1
2023-04-27T01:38:42.408Z,7.1
2023-04-27T01:39:43.898Z,7.1
2023-04-27T01:40:45.477Z,7.1
2023-04-27T01:41:47.014Z,7.1
2023-04-27T01:42:48.431Z,7.2
2023-04-27T01:43:50.123Z,7.2
2023-04-27T01:44:51.694Z,7.2
2023-04-27T01:45:53.457Z,7.2
2023-04-27T01:46:54.769Z,7.2
2023-04-27T01:47:56.747Z,7.2
2023-04-27T01:48:58.241Z,7.2
2023-04-27T01:49:59.727Z,7.2
2023-04-27T01:51:01.331Z,7.2
2023-04-27T01:52:02.876Z,7.2
2023-04-27T01:53:04.400Z,7.2
2023-04-27T01:54:05.857Z,7.2
2023-04-27T01:55:07.308Z,7.2
2023-04-27T01:56:08.591Z,7.3
2023-04-27T01:57:10.123Z,7.3
2023-04-27T01:58:11.651Z,7.3
2023-04-27T01:59:14.747Z,7.4
2023-04-27T02:00:16.536Z,7.5
2023-04-27T02:01:18.297Z,7.5
2023-04-27T02:02:20.009Z,7.6
2023-04-27T02:03:22.881Z,7.7
2023-04-27T02:04:25.202Z,7.8
2023-04-27T02:05:26.789Z,7.8
2023-04-27T02:06:28.376Z,7.9
2023-04-27T02:07:29.912Z,7.9
2023-04-27T02:08:31.457Z,7.9
2023-04-27T02:09:32.733Z,7.9
2023-04-27T02:10:34.235Z,7.9
2023-04-27T02:11:35.724Z,7.9
2023-04-27T02:12:37.255Z,7.9
2023-04-27T02:13:38.821Z,7.9
2023-04-27T02:14:40.171Z,7.9
2023-04-27T02:15:41.998Z,7.8
2023-04-27T02:16:44.198Z,7.9
2023-04-27T02:17:45.836Z,7.9
2023-04-27T02:18:47.357Z,7.9
2023-04-27T02:19:48.878Z,7.9
2023-04-27T02:20:50.457Z,7.9
2023-04-27T02:21:52.005Z,7.9
2023-04-27T02:22:53.564Z,7.9
2023-04-27T02:23:55.081Z,7.7
2023-04-27T02:24:56.577Z,7.8
2023-04-27T02:25:58.125Z,7.8
2023-04-27T02:26:59.892Z,7.8
2023-04-27T02:28:03.723Z,7.8
2023-04-27T02:29:07.952Z,7.8
2023-04-27T02:30:12.344Z,7.7
2023-04-27T02:31:14.688Z,7.6
2023-04-27T02:32:16.246Z,7.4
2023-04-27T02:33:17.798Z,7.3
2023-04-27T02:34:19.369Z,7.1
2023-04-27T02:35:20.962Z,7.1
2023-04-27T02:36:22.504Z,7.1
2023-04-27T02:37:24.487Z,7.2
2023-04-27T02:38:26.006Z,7.1
2023-04-27T02:39:27.502Z,7.1
2023-04-27T02:40:29.034Z,7.1
2023-04-27T02:41:30.558Z,7.1
2023-04-27T02:42:32.077Z,7.1
2023-04-27T02:43:33.600Z,7.1
2023-04-27T02:44:35.100Z,7.1
2023-04-27T02:45:36.687Z,7.1
2023-04-27T02:46:38.644Z,7.1
2023-04-27T02:47:40.443Z,7.1
2023-04-27T02:48:41.840Z,7.2
2023-04-27T02:49:43.276Z,7.2
2023-04-27T02:50:44.682Z,7.2
2023-04-27T02:51:46.246Z,7.2
2023-04-27T02:52:47.935Z,7.2
2023-04-27T02:53:49.716Z,7.2
2023-04-27T02:54:51.235Z,7.2
2023-04-27T02:55:52.644Z,7.2
2023-04-27T02:56:54.179Z,7.3
2023-04-27T02:57:55.601Z,7.3
2023-04-27T02:58:58.069Z,7.3
2023-04-27T02:59:59.479Z,7.4
2023-04-27T03:01:01.139Z,7.4
2023-04-27T03:02:02.833Z,7.5
2023-04-27T03:03:05.831Z,7.5
2023-04-27T03:04:08.894Z,7.6
2023-04-27T03:05:10.552Z,7.7
2023-04-27T03:06:12.068Z,7.8
2023-04-27T03:07:13.626Z,7.9
2023-04-27T03:08:15.172Z,7.9
2023-04-27T03:09:18.116Z,7.9
2023-04-27T03:10:19.613Z,7.8
2023-04-27T03:11:21.183Z,7.9
2023-04-27T03:12:22.698Z,7.8
2023-04-27T03:13:24.075Z,7.9
2023-04-27T03:14:25.437Z,7.2
2023-04-27T03:15:27.001Z,7.4
2023-04-27T03:16:28.808Z,7.6
2023-04-27T03:17:30.657Z,7.7
2023-04-27T03:18:32.244Z,7.8
2023-04-27T03:19:33.625Z,7.9
2023-04-27T03:20:35.036Z,7.9
2023-04-27T03:21:36.527Z,7.9
2023-04-27T03:22:38.224Z,7.9
2023-04-27T03:23:39.795Z,7.9
2023-04-27T03:24:41.385Z,7.9
2023-04-27T03:25:42.890Z,7.9
2023-04-27T03:26:44.149Z,7.9
2023-04-27T03:27:45.646Z,7.9
2023-04-27T03:28:47.174Z,7.9
2023-04-27T03:29:48.677Z,7.9
2023-04-27T03:30:50.182Z,7.9
2023-04-27T03:31:52.010Z,7.9
2023-04-27T03:32:53.933Z,7.9
2023-04-27T03:33:55.454Z,7.9
2023-04-27T03:34:56.984Z,7.9
2023-04-27T03:35:58.683Z,7.9
2023-04-27T03:37:00.069Z,7.9
2023-04-27T03:38:01.604Z,7.9
2023-04-27T03:39:03.016Z,7.9
2023-04-27T03:40:04.539Z,7.9
2023-04-27T03:41:06.060Z,7.9
2023-04-27T03:42:07.420Z,7.9
2023-04-27T03:43:09.220Z,7.8
2023-04-27T03:44:10.702Z,7.8
2023-04-27T03:45:12.147Z,7.8
2023-04-27T03:46:14.256Z,7.8
2023-04-27T03:47:15.852Z,7.8
2023-04-27T03:48:17.412Z,7.9
2023-04-27T03:49:18.955Z,7.9
2023-04-27T03:50:20.373Z,7.8
2023-04-27T03:51:21.924Z,7.8
2023-04-27T03:52:23.599Z,7.8
2023-04-27T03:53:25.196Z,7.9
2023-04-27T03:54:26.525Z,7.8
2023-04-27T03:55:28.035Z,7.8
2023-04-27T03:56:29.536Z,7.8
2023-04-27T03:57:31.068Z,7.8
2023-04-27T03:58:32.347Z,7.8
2023-04-27T03:59:33.697Z,7.8
2023-04-27T04:00:35.201Z,7.8
2023-04-27T04:01:36.851Z,7.8
2023-04-27T04:02:39.395Z,7.8
2023-04-27T04:03:42.407Z,7.8
2023-04-27T04:04:45.236Z,7.9
2023-04-27T04:05:46.811Z,7.9
2023-04-27T04:06:48.260Z,7.8
2023-04-27T04:07:49.661Z,7.8
2023-04-27T04:08:51.267Z,7.8
2023-04-27T04:09:52.788Z,7.7
2023-04-27T04:10:54.177Z,7.7
2023-04-27T04:11:55.564Z,7.6
2023-04-27T04:12:57.108Z,7.4
2023-04-27T04:13:58.684Z,7.3
2023-04-27T04:15:00.230Z,7.2
2023-04-27T04:16:02.022Z,7.1
2023-04-27T04:17:03.594Z,7.1
2023-04-27T04:18:05.269Z,7.1
2023-04-27T04:19:06.695Z,7.1
2023-04-27T04:20:08.206Z,7.1
2023-04-27T04:21:09.737Z,7.1
2023-04-27T04:22:11.519Z,7.1
2023-04-27T04:23:12.983Z,7.1
2023-04-27T04:24:14.494Z,7.1
2023-04-27T04:25:16.056Z,7.1
2023-04-27T04:26:17.351Z,7.1
2023-04-27T04:27:18.878Z,7.1
2023-04-27T04:28:20.298Z,7.1
2023-04-27T04:29:21.861Z,7.1
2023-04-27T04:30:23.395Z,7.1
2023-04-27T04:31:25.244Z,7.1
2023-04-27T04:32:26.807Z,7.1
2023-04-27T04:33:28.391Z,7.1
2023-04-27T04:34:29.965Z,7.2
2023-04-27T04:35:31.421Z,7.2
2023-04-27T04:36:32.922Z,7.2
2023-04-27T04:37:34.529Z,7.2
2023-04-27T04:38:36.105Z,7.2
2023-04-27T04:39:37.713Z,7.2
2023-04-27T04:40:39.163Z,7.2
2023-04-27T04:41:40.608Z,7.2
2023-04-27T04:42:41.879Z,7.2
2023-04-27T04:43:43.144Z,7.2
2023-04-27T04:44:44.639Z,7.2
2023-04-27T04:45:45.916Z,7.3
2023-04-27T04:46:47.763Z,7.3
2023-04-27T04:47:49.274Z,7.3
2023-04-27T04:48:55.047Z,7.4
2023-04-27T04:49:56.763Z,7.5
2023-04-27T04:50:58.371Z,7.6
2023-04-27T04:51:59.872Z,7.6
2023-04-27T04:53:01.410Z,7.7
2023-04-27T04:54:03.670Z,7.8
2023-04-27T04:55:05.143Z,7.9
2023-04-27T04:56:06.605Z,7.9
2023-04-27T04:57:08.084Z,7.9
2023-04-27T04:58:09.629Z,7.9
2023-04-27T04:59:11.495Z,7.8
2023-04-27T05:00:13.162Z,7.9
2023-04-27T05:01:14.945Z,7.9
2023-04-27T05:02:16.742Z,7.9
2023-04-27T05:03:19.388Z,7.9
2023-04-27T05:04:22.735Z,7.9
2023-04-27T05:05:24.284Z,7.9
2023-04-27T05:06:25.790Z,7.3
2023-04-27T05:07:27.187Z,7.4
2023-04-27T05:08:28.843Z,7.5
2023-04-27T05:09:30.369Z,7.7
2023-04-27T05:10:32.117Z,7.8
2023-04-27T05:11:33.696Z,7.9
2023-04-27T05:12:35.049Z,7.9
2023-04-27T05:13:36.417Z,7.9
2023-04-27T05:14:37.959Z,7.9
2023-04-27T05:15:40.056Z,7.9
2023-04-27T05:16:42.103Z,7.9
2023-04-27T05:17:43.984Z,7.9
2023-04-27T05:18:45.593Z,7.9
2023-04-27T05:19:47.185Z,7.9
2023-04-27T05:20:48.724Z,7.9
2023-04-27T05:21:50.244Z,7.8
2023-04-27T05:22:51.797Z,7.8
2023-04-27T05:23:53.389Z,7.8
2023-04-27T05:24:54.950Z,7.8
2023-04-27T05:25:56.526Z,7.8
2023-04-27T05:27:00.236Z,7.8
2023-04-27T05:28:02.345Z,7.8
2023-04-27T05:29:03.850Z,7.8
2023-04-27T05:30:05.426Z,7.8
2023-04-27T05:31:07.004Z,7.7
2023-04-27T05:32:09.157Z,7.7
2023-04-27T05:33:11.042Z,7.8
2023-04-27T05:34:12.455Z,7.8
2023-04-27T05:35:13.890Z,7.8
2023-04-27T05:36:15.516Z,7.8
2023-04-27T05:37:16.974Z,7.8
2023-04-27T05:38:18.581Z,7.8
2023-04-27T05:39:20.369Z,7.8
2023-04-27T05:40:21.887Z,7.2
2023-04-27T05:41:23.463Z,7.2
2023-04-27T05:42:25.171Z,7.3
2023-04-27T05:43:26.480Z,7.3
2023-04-27T05:44:28.040Z,7.3
2023-04-27T05:45:29.373Z,7.3
2023-04-27T05:46:30.987Z,7.3
2023-04-27T05:47:32.777Z,7.2
2023-04-27T05:48:34.285Z,7.2
2023-04-27T05:49:35.872Z,7.2
2023-04-27T05:50:37.492Z,7.1
2023-04-27T05:51:38.878Z,7.1
2023-04-27T05:52:40.270Z,7.1
2023-04-27T05:53:41.781Z,7.1
2023-04-27T05:54:43.368Z,7.1
2023-04-27T05:55:44.854Z,7.1
2023-04-27T05:56:46.665Z,7.1
2023-04-27T05:58:10.215Z,7.1
2023-04-27T05:59:12.373Z,7.1
2023-04-27T06:00:13.599Z,7.1
2023-04-27T06:01:15.178Z,7.1
2023-04-27T06:02:17.186Z,7.1
2023-04-27T06:03:19.923Z,7.1
2023-04-27T06:04:22.505Z,7.1
2023-04-27T06:05:24.365Z,7.1
2023-04-27T06:06:26.101Z,7.1
2023-04-27T06:07:27.397Z,7.1
2023-04-27T06:08:28.936Z,7.1
2023-04-27T06:09:30.353Z,7.1
2023-04-27T06:10:31.901Z,7.1
2023-04-27T06:11:33.426Z,7.1
2023-04-27T06:12:34.897Z,7.2
2023-04-27T06:13:36.310Z,7.2
2023-04-27T06:14:37.723Z,7.2
2023-04-27T06:15:39.364Z,7.2
2023-04-27T06:16:40.949Z,7.2
2023-04-27T06:17:42.859Z,7.2
2023-04-27T06:18:44.274Z,7.2
2023-04-27T06:19:45.796Z,7.2
2023-04-27T06:20:47.331Z,7.2
2023-04-27T06:21:49.015Z,7.2
2023-04-27T06:22:50.623Z,7.2
2023-04-27T06:23:52.152Z,7.2
2023-04-27T06:24:53.651Z,7.2
2023-04-27T06:25:55.036Z,7.3
2023-04-27T06:26:56.555Z,7.3
2023-04-27T06:27:58.152Z,7.4
2023-04-27T06:28:59.726Z,7.4
2023-04-27T06:30:01.375Z,7.5
2023-04-27T06:31:03.140Z,7.6
2023-04-27T06:32:05.047Z,7.6
2023-04-27T06:33:06.979Z,7.7
2023-04-27T06:34:08.646Z,7.8
2023-04-27T06:35:10.198Z,7.9
2023-04-27T06:36:11.882Z,7.2
2023-04-27T06:37:13.218Z,7.4
2023-04-27T06:38:14.697Z,7.5
2023-04-27T06:39:17.279Z,7.6
2023-04-27T06:40:18.908Z,7.8
2023-04-27T06:41:20.446Z,7.8
2023-04-27T06:42:22.065Z,7.9
2023-04-27T06:43:23.649Z,7.9
2023-04-27T06:44:25.499Z,7.9
2023-04-27T06:45:26.973Z,7.9
2023-04-27T06:46:29.300Z,7.9
2023-04-27T06:47:30.839Z,7.9
2023-04-27T06:48:32.373Z,7.9
2023-04-27T06:49:33.885Z,7.9
2023-04-27T06:50:35.154Z,7.9
2023-04-27T06:51:36.449Z,7.8
2023-04-27T06:52:38.181Z,7.9
2023-04-27T06:53:39.596Z,7.9
2023-04-27T06:54:41.108Z,7.7
2023-04-27T06:55:49.640Z,7.7
2023-04-27T06:56:51.337Z,7.8
2023-04-27T06:57:52.852Z,7.9
2023-04-27T06:58:54.318Z,7.9
2023-04-27T06:59:55.743Z,7.9
2023-04-27T07:00:57.052Z,7.9
2023-04-27T07:01:59.443Z,7.9
2023-04-27T07:03:01.632Z,7.9
2023-04-27T07:04:03.860Z,7.9
2023-04-27T07:05:05.621Z,7.9
2023-04-27T07:06:07.151Z,7.9
2023-04-27T07:07:08.719Z,7.9
2023-04-27T07:08:10.801Z,7.9
2023-04-27T07:09:29.982Z,7.9
2023-04-27T07:10:31.628Z,7.9
2023-04-27T07:11:33.171Z,7.8
2023-04-27T07:12:34.819Z,7.9
2023-04-27T07:13:36.568Z,7.9
2023-04-27T07:14:38.181Z,7.8
2023-04-27T07:15:39.816Z,7.9
2023-04-27T07:16:41.603Z,7.9
2023-04-27T07:17:43.479Z,7.9
2023-04-27T07:18:45.150Z,7.9
2023-04-27T07:19:46.717Z,7.9
2023-04-27T07:20:48.103Z,7.9
2023-04-27T07:21:49.695Z,7.9
2023-04-27T07:22:51.216Z,7.8
2023-04-27T07:23:57.026Z,7.8
2023-04-27T07:24:58.430Z,7.8
2023-04-27T07:25:59.953Z,7.5
2023-04-27T07:27:01.430Z,7.5
2023-04-27T07:28:03.146Z,7.6
